Time,TemperatureF,DewpointF,PressureIn,WindDirection,WindDirectionDegrees,WindSpeedMPH,WindSpeedGustMPH,Humidity,HourlyPrecipIn,Conditions,Clouds,dailyrainin,SolarRadiationWatts/m^2,SoftwareType,DateUTC
2013-07-22 00:01:00,83.0,60.0,30.00,South,176,10.0,12.0,46,0.00,,,0.00,0.000000,,2013-07-22 07:01:00,
2013-07-22 00:11:00,83.0,58.0,29.99,South,189,5.0,13.0,43,0.00,,,0.00,0.000000,,2013-07-22 07:11:00,
2013-07-22 01:43:00,80.0,53.0,29.96,SSW,193,8.0,13.0,40,0.00,,,0.00,0.000000,,2013-07-22 08:43:00,
2013-07-22 01:52:00,79.0,53.0,29.96,SSW,212,10.0,14.0,40,0.00,,,0.00,0.000000,,2013-07-22 08:52:00,
2013-07-22 02:02:00,80.0,53.0,29.96,South,182,9.0,13.0,39,0.00,,,0.00,0.000000,,2013-07-22 09:02:00,
2013-07-22 02:11:00,80.0,55.0,29.94,South,188,9.0,15.0,42,0.00,,,0.00,0.000000,,2013-07-22 09:11:00,
2013-07-22 02:22:00,80.0,55.0,29.95,SSE,158,4.0,10.0,42,0.00,,,0.00,0.000000,,2013-07-22 09:22:00,
2013-07-22 02:33:00,80.0,55.0,29.95,SSE,149,4.0,9.0,43,0.00,,,0.00,0.000000,,2013-07-22 09:33:00,
2013-07-22 02:42:00,80.0,55.0,29.95,SSE,155,4.0,7.0,43,0.00,,,0.00,0.000000,,2013-07-22 09:42:00,
2013-07-22 02:52:00,80.0,56.0,29.95,SSE,150,4.0,9.0,44,0.00,,,0.00,0.000000,,2013-07-22 09:52:00,
2013-07-22 03:01:00,80.0,57.0,29.95,SSE,165,5.0,10.0,46,0.00,,,0.00,0.000000,,2013-07-22 10:01:00,
2013-07-22 03:11:00,80.0,57.0,29.94,South,182,7.0,10.0,45,0.00,,,0.00,0.000000,,2013-07-22 10:11:00,
2013-07-22 03:22:00,80.0,57.0,29.95,South,178,6.0,11.0,46,0.00,,,0.00,0.000000,,2013-07-22 10:22:00,
2013-07-22 03:32:00,80.0,55.0,29.95,SSE,167,9.0,11.0,43,0.00,,,0.00,0.000000,,2013-07-22 10:32:00,
2013-07-22 03:43:00,80.0,55.0,29.94,SSE,152,5.0,9.0,42,0.00,,,0.00,0.000000,,2013-07-22 10:43:00,
2013-07-22 03:52:00,80.0,57.0,29.94,SSW,200,9.0,12.0,46,0.00,,,0.00,0.000000,,2013-07-22 10:52:00,
2013-07-22 04:01:00,79.0,53.0,29.94,SSW,207,8.0,14.0,40,0.00,,,0.00,0.000000,,2013-07-22 11:01:00,
2013-07-22 04:11:00,79.0,52.0,29.94,South,180,8.0,13.0,39,0.00,,,0.00,0.000000,,2013-07-22 11:11:00,
2013-07-22 04:22:00,78.0,52.0,29.94,SSW,205,9.0,14.0,40,0.00,,,0.00,0.000000,,2013-07-22 11:22:00,
2013-07-22 04:32:00,78.0,52.0,29.94,SSW,205,9.0,14.0,40,0.00,,,0.00,0.000000,,2013-07-22 11:32:00,
2013-07-22 04:43:00,77.0,50.0,29.95,SSW,193,9.0,14.0,39,0.00,,,0.00,0.000000,,2013-07-22 11:43:00,
2013-07-22 05:43:00,78.0,45.0,29.98,SW,224,7.0,14.0,31,0.00,,,0.00,0.000000,,2013-07-22 12:43:00,
2013-07-22 06:21:00,78.0,47.0,29.98,SSW,200,6.0,11.0,33,0.00,,,0.00,9.000000,,2013-07-22 13:21:00,
2013-07-22 06:32:00,78.0,47.0,29.98,SSW,205,4.0,10.0,33,0.00,,,0.00,14.000000,,2013-07-22 13:32:00,
2013-07-22 06:43:00,77.0,46.0,29.99,SSW,201,7.0,9.0,33,0.00,,,0.00,25.000000,,2013-07-22 13:43:00,
2013-07-22 06:53:00,77.0,46.0,30.00,SSW,195,5.0,7.0,34,0.00,,,0.00,32.000000,,2013-07-22 13:53:00,
2013-07-22 07:11:00,77.0,46.0,30.00,South,178,7.0,9.0,34,0.00,,,0.00,139.000000,,2013-07-22 14:11:00,
2013-07-22 07:22:00,78.0,47.0,30.00,South,179,8.0,10.0,33,0.00,,,0.00,169.000000,,2013-07-22 14:22:00,
2013-07-22 07:32:00,79.0,47.0,30.00,South,186,6.0,12.0,33,0.00,,,0.00,216.000000,,2013-07-22 14:32:00,
2013-07-22 07:53:00,81.0,47.0,30.02,South,172,4.0,9.0,31,0.00,,,0.00,281.000000,,2013-07-22 14:53:00,
2013-07-22 08:01:00,82.0,47.0,30.02,SSW,207,6.0,9.0,30,0.00,,,0.00,304.000000,,2013-07-22 15:01:00,
2013-07-22 08:22:00,84.0,49.0,30.02,SSW,200,5.0,11.0,30,0.00,,,0.00,130.000000,,2013-07-22 15:22:00,
2013-07-22 08:32:00,85.0,52.0,30.02,SSW,201,2.0,4.0,32,0.00,,,0.00,480.000000,,2013-07-22 15:32:00,
2013-07-22 08:42:00,85.0,53.0,30.02,WSW,257,1.0,5.0,33,0.00,,,0.00,176.000000,,2013-07-22 15:42:00,
2013-07-22 08:52:00,85.0,54.0,30.02,NW,306,3.0,5.0,35,0.00,,,0.00,513.000000,,2013-07-22 15:52:00,
2013-07-22 09:11:00,84.0,56.0,30.03,North,358,2.0,5.0,38,0.00,,,0.00,120.000000,,2013-07-22 16:11:00,
2013-07-22 09:21:00,84.0,54.0,30.03,NNW,330,3.0,5.0,36,0.00,,,0.00,318.000000,,2013-07-22 16:21:00,
2013-07-22 09:32:00,84.0,53.0,30.03,NW,322,3.0,5.0,34,0.00,,,0.00,752.000000,,2013-07-22 16:32:00,
2013-07-22 09:42:00,85.0,53.0,30.03,NNW,337,2.0,8.0,34,0.00,,,0.00,578.000000,,2013-07-22 16:42:00,
2013-07-22 09:52:00,86.0,53.0,30.03,NW,309,3.0,6.0,32,0.00,,,0.00,807.000000,,2013-07-22 16:52:00,
2013-07-22 10:01:00,87.0,54.0,30.03,NW,308,0.0,2.0,33,0.00,,,0.00,503.000000,,2013-07-22 17:01:00,
2013-07-22 10:11:00,89.0,54.0,30.03,North,360,3.0,5.0,31,0.00,,,0.00,659.000000,,2013-07-22 17:11:00,
2013-07-22 10:23:00,89.0,54.0,30.03,WNW,288,1.0,4.0,31,0.00,,,0.00,589.000000,,2013-07-22 17:23:00,
2013-07-22 10:32:00,89.0,54.0,30.03,ENE,70,3.0,4.0,30,0.00,,,0.00,276.000000,,2013-07-22 17:32:00,
2013-07-22 10:42:00,89.0,54.0,30.03,ENE,69,2.0,4.0,31,0.00,,,0.00,1037.000000,,2013-07-22 17:42:00,
2013-07-22 10:52:00,90.0,54.0,30.03,ENE,70,0.0,3.0,30,0.00,,,0.00,431.000000,,2013-07-22 17:52:00,
2013-07-22 11:01:00,92.0,53.0,30.03,ESE,113,5.0,7.0,27,0.00,,,0.00,937.000000,,2013-07-22 18:01:00,
2013-07-22 11:11:00,93.0,55.0,30.03,ESE,121,3.0,7.0,28,0.00,,,0.00,877.000000,,2013-07-22 18:11:00,
2013-07-22 11:43:00,93.0,55.0,30.02,ENE,78,2.0,6.0,28,0.00,,,0.00,965.000000,,2013-07-22 18:43:00,
2013-07-22 11:52:00,94.0,56.0,30.02,SSW,198,3.0,6.0,28,0.00,,,0.00,396.000000,,2013-07-22 18:52:00,
2013-07-22 12:02:00,94.0,56.0,30.02,ESE,119,4.0,7.0,28,0.00,,,0.00,670.000000,,2013-07-22 19:02:00,
2013-07-22 12:11:00,95.0,56.0,30.02,ESE,112,4.0,7.0,27,0.00,,,0.00,995.000000,,2013-07-22 19:11:00,
2013-07-22 12:43:00,96.0,56.0,30.01,SSE,148,5.0,11.0,26,0.00,,,0.00,513.000000,,2013-07-22 19:43:00,
2013-07-22 12:53:00,96.0,56.0,30.01,SSE,148,5.0,11.0,26,0.00,,,0.00,513.000000,,2013-07-22 19:53:00,
2013-07-22 13:12:00,95.0,56.0,30.00,SE,139,4.0,9.0,27,0.00,,,0.00,570.000000,,2013-07-22 20:12:00,
2013-07-22 13:22:00,95.0,56.0,29.99,East,89,8.0,12.0,27,0.00,,,0.00,1361.000000,,2013-07-22 20:22:00,
2013-07-22 13:32:00,95.0,56.0,29.99,SSE,167,1.0,11.0,27,0.00,,,0.00,441.000000,,2013-07-22 20:32:00,
2013-07-22 13:43:00,95.0,56.0,29.99,East,92,2.0,6.0,27,0.00,,,0.00,455.000000,,2013-07-22 20:43:00,
2013-07-22 13:52:00,95.0,55.0,29.99,SW,235,2.0,5.0,26,0.00,,,0.00,555.000000,,2013-07-22 20:52:00,
2013-07-22 14:11:00,96.0,54.0,29.98,NNE,25,2.0,6.0,25,0.00,,,0.00,677.000000,,2013-07-22 21:11:00,
2013-07-22 14:22:00,95.0,55.0,29.98,NE,36,8.0,10.0,26,0.00,,,0.00,464.000000,,2013-07-22 21:22:00,
2013-07-22 14:32:00,96.0,56.0,29.98,SSE,154,4.0,20.0,26,0.00,,,0.00,1183.000000,,2013-07-22 21:32:00,
2013-07-22 14:43:00,96.0,56.0,29.96,WSW,242,2.0,10.0,26,0.00,,,0.00,327.000000,,2013-07-22 21:43:00,
2013-07-22 14:52:00,96.0,56.0,29.96,East,82,3.0,9.0,26,0.00,,,0.00,359.000000,,2013-07-22 21:52:00,
2013-07-22 15:11:00,95.0,54.0,29.96,NE,49,7.0,10.0,25,0.00,,,0.00,320.000000,,2013-07-22 22:11:00,
2013-07-22 15:22:00,95.0,55.0,29.96,ENE,60,3.0,5.0,26,0.00,,,0.00,223.000000,,2013-07-22 22:22:00,
2013-07-22 15:32:00,94.0,54.0,29.96,ENE,71,5.0,10.0,26,0.00,,,0.00,190.000000,,2013-07-22 22:32:00,
2013-07-22 15:43:00,94.0,55.0,29.97,NE,53,4.0,5.0,27,0.00,,,0.00,236.000000,,2013-07-22 22:43:00,
2013-07-22 15:52:00,94.0,54.0,29.96,NNE,32,3.0,6.0,26,0.00,,,0.00,260.000000,,2013-07-22 22:52:00,
2013-07-22 16:42:00,88.0,60.0,29.95,East,80,18.0,24.0,39,0.00,,,0.00,51.000000,,2013-07-22 23:42:00,
2013-07-22 16:52:00,82.0,64.0,29.99,East,87,31.0,36.0,54,0.00,,,0.00,16.000000,,2013-07-22 23:52:00,
2013-07-22 17:43:00,74.0,65.0,29.98,SSE,167,15.0,21.0,74,0.07,,,0.07,5.000000,,2013-07-23 00:43:00,
2013-07-22 17:52:00,73.0,65.0,29.99,South,175,17.0,22.0,75,0.07,,,0.07,5.000000,,2013-07-23 00:52:00,
2013-07-22 18:11:00,74.0,64.0,29.99,SW,227,12.0,15.0,70,0.02,,,0.07,5.000000,,2013-07-23 01:11:00,
2013-07-22 18:22:00,76.0,65.0,30.00,WSW,245,13.0,18.0,68,0.01,,,0.07,0.000000,,2013-07-23 01:22:00,
2013-07-22 18:32:00,77.0,66.0,30.00,SW,217,10.0,19.0,69,0.01,,,0.07,5.000000,,2013-07-23 01:32:00,
2013-07-22 18:43:00,76.0,65.0,30.01,SW,223,12.0,23.0,68,0.00,,,0.07,0.000000,,2013-07-23 01:43:00,
2013-07-22 18:53:00,76.0,65.0,30.01,SW,226,12.0,19.0,70,0.00,,,0.07,5.000000,,2013-07-23 01:53:00,
2013-07-22 19:01:00,76.0,66.0,30.01,WSW,243,6.0,16.0,71,0.01,,,0.08,5.000000,,2013-07-23 02:01:00,
2013-07-22 19:11:00,76.0,66.0,30.01,SW,231,4.0,7.0,71,0.01,,,0.08,5.000000,,2013-07-23 02:11:00,
2013-07-22 19:22:00,77.0,66.0,30.01,SW,231,4.0,7.0,70,0.01,,,0.08,5.000000,,2013-07-23 02:22:00,
2013-07-22 19:33:00,77.0,67.0,30.01,SW,233,6.0,7.0,72,0.02,,,0.09,0.000000,,2013-07-23 02:33:00,
2013-07-22 19:43:00,77.0,67.0,29.98,SW,231,0.0,6.0,72,0.02,,,0.09,0.000000,,2013-07-23 02:43:00,
2013-07-22 19:52:00,77.0,68.0,29.99,SW,231,2.0,3.0,74,0.03,,,0.10,0.000000,,2013-07-23 02:52:00,
2013-07-22 20:01:00,77.0,70.0,29.99,NE,51,4.0,5.0,78,0.02,,,0.10,0.000000,,2013-07-23 03:01:00,
2013-07-22 20:11:00,76.0,69.0,29.99,ENE,74,1.0,6.0,79,0.03,,,0.11,0.000000,,2013-07-23 03:11:00,
2013-07-22 20:22:00,76.0,69.0,29.99,ENE,75,0.0,3.0,79,0.03,,,0.11,0.000000,,2013-07-23 03:22:00,
2013-07-22 20:33:00,76.0,69.0,29.99,ENE,74,1.0,2.0,80,0.02,,,0.11,0.000000,,2013-07-23 03:33:00,
2013-07-22 20:43:00,75.0,68.0,29.99,ENE,74,1.0,4.0,80,0.02,,,0.11,0.000000,,2013-07-23 03:43:00,
2013-07-22 20:52:00,75.0,69.0,29.99,WNW,284,7.0,12.0,81,0.01,,,0.11,0.000000,,2013-07-23 03:52:00,
2013-07-22 21:01:00,75.0,68.0,29.99,WNW,284,5.0,11.0,78,0.01,,,0.11,0.000000,,2013-07-23 04:01:00,
2013-07-22 21:11:00,75.0,67.0,30.01,West,278,2.0,5.0,77,0.00,,,0.11,0.000000,,2013-07-23 04:11:00,
2013-07-22 21:42:00,75.0,66.0,30.01,SSW,196,10.0,13.0,74,0.00,,,0.11,0.000000,,2013-07-23 04:42:00,
2013-07-22 21:53:00,75.0,66.0,30.00,South,184,8.0,11.0,74,0.00,,,0.11,0.000000,,2013-07-23 04:53:00,
2013-07-22 22:02:00,76.0,67.0,30.00,WSW,242,5.0,11.0,74,0.00,,,0.11,0.000000,,2013-07-23 05:02:00,
2013-07-22 22:11:00,76.0,67.0,30.00,SW,224,3.0,10.0,75,0.00,,,0.11,0.000000,,2013-07-23 05:11:00,
2013-07-22 22:43:00,75.0,67.0,30.03,SSW,193,4.0,5.0,75,0.00,,,0.11,0.000000,,2013-07-23 05:43:00,
2013-07-22 22:52:00,75.0,67.0,30.03,WSW,246,4.0,6.0,75,0.00,,,0.11,0.000000,,2013-07-23 05:52:00,
2013-07-22 23:01:00,75.0,66.0,30.03,WSW,257,3.0,6.0,74,0.00,,,0.11,0.000000,,2013-07-23 06:01:00,
2013-07-22 23:11:00,75.0,66.0,30.03,WSW,250,4.0,6.0,74,0.00,,,0.11,0.000000,,2013-07-23 06:11:00,
2013-07-22 23:21:00,75.0,66.0,30.03,WSW,250,0.0,5.0,74,0.00,,,0.11,0.000000,,2013-07-23 06:21:00,
2013-07-22 23:33:00,75.0,67.0,30.03,WSW,250,0.0,0.0,75,0.00,,,0.11,0.000000,,2013-07-23 06:33:00,
2013-07-22 23:42:00,75.0,67.0,30.03,WSW,250,0.0,0.0,76,0.00,,,0.11,0.000000,,2013-07-23 06:42:00,
2013-07-22 23:52:00,75.0,67.0,30.03,WSW,250,0.0,2.0,77,0.00,,,0.11,0.000000,,2013-07-23 06:52:00,